Terminal Aerodrome Forecast
Issued by NWS Topeka, KS

Home | Current Version | Previous Version | Graphics & Text | Print | Product List | Glossary On
Versions: 1 2 3 4 5 6 7 8 9 10 11 12 13 14 15 16 17 18 19
000
FTUS43 KTOP 180300 AAA
TAFTOP
TAF AMD
KTOP 180320Z 1803/1824 09003KT P6SM BKN025 OVC035
     FM180400 11005KT 4SM -SN BR OVC015
     FM180430 09005KT 1SM -SN BR OVC005
     FM180900 08006KT 4SM -SN BR OVC005=

USA.gov is the U.S. government's official web portal to all federal, state and local government web resources and services.